Time;durP1;ratioP1;P1;durP2;ratioP2;P2;SDS_P1;SDS_P2;PMS_P1;PMS_P2;Temp;Humidity;BMP_temperature;BMP_pressure;BME280_temperature;BME280_humidity;BME280_pressure;Samples;Min_cycle;Max_cycle;Signal;HPM_P1;HPM_P2
2022/09/07 00:02:13;;;;;;;10.23;6.60;;;;;;;;;;4888800;29;20331;-43
2022/09/07 00:04:39;;;;;;;11.03;7.67;;;;;;;;;;4899418;28;20604;-43
2022/09/07 00:07:05;;;;;;;12.70;8.07;;;;;;;;;;4885657;29;20215;-43
2022/09/07 00:09:32;;;;;;;9.60;7.00;;;;;;;;;;4886573;29;20389;-43
2022/09/07 00:11:58;;;;;;;14.27;8.60;;;;;;;;;;4890345;29;20220;-43
2022/09/07 00:14:24;;;;;;;8.30;6.17;;;;;;;;;;4887747;28;20456;-42
2022/09/07 00:16:50;;;;;;;8.97;6.80;;;;;;;;;;4886520;29;20226;-43
2022/09/07 00:19:16;;;;;;;10.33;7.27;;;;;;;;;;4886695;29;20188;-43
2022/09/07 00:21:42;;;;;;;12.47;8.27;;;;;;;;;;4887266;29;20335;-43
2022/09/07 00:24:08;;;;;;;12.97;7.57;;;;;;;;;;4895183;28;20386;-43
2022/09/07 00:26:34;;;;;;;11.67;7.83;;;;;;;;;;4886496;29;20471;-43
2022/09/07 00:29:02;;;;;;;12.60;7.20;;;;;;;;;;4888201;29;20867;-43
2022/09/07 00:31:29;;;;;;;9.60;7.37;;;;;;;;;;4880039;29;20291;-42
2022/09/07 00:33:57;;;;;;;8.00;7.20;;;;;;;;;;4885210;29;20193;-43
2022/09/07 00:36:23;;;;;;;11.87;7.60;;;;;;;;;;4886314;29;20188;-42
2022/09/07 00:38:49;;;;;;;9.87;7.03;;;;;;;;;;4884993;29;20674;-43
2022/09/07 00:41:16;;;;;;;8.73;6.43;;;;;;;;;;4884583;29;20188;-43
2022/09/07 00:43:42;;;;;;;10.80;7.70;;;;;;;;;;4886938;29;20868;-43
2022/09/07 00:46:15;;;;;;;9.80;7.20;;;;;;;;;;4884307;29;20959;-43
2022/09/07 00:48:45;;;;;;;9.17;5.90;;;;;;;;;;4884379;29;20931;-43
2022/09/07 00:51:18;;;;;;;8.23;6.47;;;;;;;;;;4888676;29;20366;-43
2022/09/07 00:53:46;;;;;;;10.40;5.93;;;;;;;;;;4886356;29;20586;-43
2022/09/07 00:56:13;;;;;;;9.00;6.30;;;;;;;;;;4881770;29;20270;-43
2022/09/07 00:58:40;;;;;;;6.73;5.80;;;;;;;;;;4882183;29;20598;-44
2022/09/07 01:01:08;;;;;;;7.43;6.07;;;;;;;;;;4881903;29;20260;-42
2022/09/07 01:03:38;;;;;;;12.13;6.27;;;;;;;;;;4884961;29;20252;-43
2022/09/07 01:06:18;;;;;;;8.90;6.70;;;;;;;;;;4881932;29;20193;-43
2022/09/07 01:08:45;;;;;;;11.27;6.53;;;;;;;;;;4875255;29;20571;-43
2022/09/07 01:11:11;;;;;;;10.53;6.70;;;;;;;;;;4876772;29;20192;-42
2022/09/07 01:13:39;;;;;;;9.83;6.90;;;;;;;;;;4879845;29;20519;-43
2022/09/07 01:16:05;;;;;;;9.77;6.50;;;;;;;;;;4883514;29;21348;-43
2022/09/07 01:18:50;;;;;;;12.07;7.13;;;;;;;;;;4881937;29;20184;-43
2022/09/07 01:21:19;;;;;;;9.87;6.20;;;;;;;;;;4882189;29;20185;-42
2022/09/07 01:24:05;;;;;;;11.17;7.90;;;;;;;;;;4881905;29;20558;-43
2022/09/07 01:26:43;;;;;;;12.67;8.07;;;;;;;;;;4903689;28;20236;-43
2022/09/07 01:29:15;;;;;;;11.30;8.90;;;;;;;;;;4880210;29;20638;-43
2022/09/07 01:31:45;;;;;;;12.40;8.73;;;;;;;;;;4883005;29;21152;-43
2022/09/07 01:34:14;;;;;;;11.20;8.77;;;;;;;;;;4888966;29;20268;-43
2022/09/07 01:36:49;;;;;;;16.70;9.73;;;;;;;;;;4888085;29;20190;-43
2022/09/07 01:39:15;;;;;;;12.93;9.70;;;;;;;;;;4886995;29;20215;-41
2022/09/07 01:42:00;;;;;;;12.53;10.23;;;;;;;;;;4885948;28;20354;-43
2022/09/07 01:44:29;;;;;;;13.23;10.73;;;;;;;;;;4888917;29;20487;-43
2022/09/07 01:47:01;;;;;;;12.73;11.43;;;;;;;;;;4888201;29;20291;-43
2022/09/07 01:49:30;;;;;;;15.97;12.13;;;;;;;;;;4887455;29;20475;-43
2022/09/07 01:52:00;;;;;;;17.67;12.70;;;;;;;;;;4887866;29;20180;-43
2022/09/07 01:54:34;;;;;;;15.10;13.43;;;;;;;;;;4885962;29;20435;-43
2022/09/07 01:57:05;;;;;;;18.03;13.57;;;;;;;;;;4885868;29;20548;-43
2022/09/07 01:59:40;;;;;;;15.53;13.67;;;;;;;;;;4888034;29;20189;-43
2022/09/07 02:02:10;;;;;;;19.07;15.97;;;;;;;;;;4887454;29;20802;-43
2022/09/07 02:04:36;;;;;;;19.50;16.43;;;;;;;;;;4887421;29;20908;-43
2022/09/07 02:07:12;;;;;;;21.73;17.17;;;;;;;;;;4885398;29;20506;-43
2022/09/07 02:09:48;;;;;;;17.90;14.63;;;;;;;;;;4885009;29;20181;-43
2022/09/07 02:12:17;;;;;;;18.43;16.27;;;;;;;;;;4889131;29;20194;-43
2022/09/07 02:14:46;;;;;;;21.70;18.50;;;;;;;;;;4886039;29;20188;-43
2022/09/07 02:17:13;;;;;;;21.67;16.73;;;;;;;;;;4884179;29;20700;-43
2022/09/07 02:19:46;;;;;;;25.87;19.03;;;;;;;;;;4888101;28;20192;-43
2022/09/07 02:22:15;;;;;;;19.77;16.77;;;;;;;;;;4888444;29;20199;-43
2022/09/07 02:24:44;;;;;;;23.37;19.87;;;;;;;;;;4887999;29;20205;-43
2022/09/07 02:27:18;;;;;;;19.00;17.00;;;;;;;;;;4887917;29;20576;-43
2022/09/07 02:29:44;;;;;;;21.57;19.27;;;;;;;;;;4885339;29;20633;-43
2022/09/07 02:32:10;;;;;;;23.90;19.63;;;;;;;;;;4884502;29;20211;-43
2022/09/07 02:34:36;;;;;;;30.50;20.10;;;;;;;;;;4887438;29;20640;-43
2022/09/07 02:37:05;;;;;;;21.70;17.90;;;;;;;;;;4887281;29;20199;-43
2022/09/07 02:39:32;;;;;;;25.17;20.60;;;;;;;;;;4887366;29;20712;-43
2022/09/07 02:41:58;;;;;;;23.57;21.03;;;;;;;;;;4889172;29;20219;-43
2022/09/07 02:44:26;;;;;;;25.57;21.27;;;;;;;;;;4899844;28;20796;-43
2022/09/07 02:47:00;;;;;;;28.03;23.27;;;;;;;;;;4888480;29;20611;-43
2022/09/07 02:49:45;;;;;;;28.40;22.53;;;;;;;;;;4890452;29;20637;-43
2022/09/07 02:52:11;;;;;;;25.60;21.80;;;;;;;;;;4883037;29;20860;-43
2022/09/07 02:54:45;;;;;;;23.70;20.77;;;;;;;;;;4884853;29;20641;-43
2022/09/07 02:57:26;;;;;;;21.73;17.87;;;;;;;;;;4886943;29;20310;-43
2022/09/07 03:00:03;;;;;;;18.77;16.53;;;;;;;;;;4888122;29;20346;-43
2022/09/07 03:02:32;;;;;;;22.20;16.87;;;;;;;;;;4888517;29;20204;-43
2022/09/07 03:04:58;;;;;;;17.13;14.37;;;;;;;;;;4886539;29;20586;-43
2022/09/07 03:07:47;;;;;;;20.73;18.43;;;;;;;;;;4882900;29;20184;-43
2022/09/07 03:10:14;;;;;;;20.30;17.47;;;;;;;;;;4887375;28;20207;-43
2022/09/07 03:12:45;;;;;;;23.43;19.47;;;;;;;;;;4887637;29;20739;-43
2022/09/07 03:15:15;;;;;;;18.67;16.77;;;;;;;;;;4887282;29;20184;-43
2022/09/07 03:17:42;;;;;;;24.20;19.27;;;;;;;;;;4883350;29;20196;-43
2022/09/07 03:20:08;;;;;;;18.47;16.50;;;;;;;;;;4885076;29;20625;-43
2022/09/07 03:22:34;;;;;;;23.53;20.47;;;;;;;;;;4884076;29;20527;-43
2022/09/07 03:25:03;;;;;;;26.27;20.03;;;;;;;;;;4889195;29;20192;-43
2022/09/07 03:27:30;;;;;;;20.37;18.17;;;;;;;;;;4886991;28;20190;-43
2022/09/07 03:29:56;;;;;;;21.63;17.70;;;;;;;;;;4885314;29;20180;-43
2022/09/07 03:32:22;;;;;;;23.73;19.73;;;;;;;;;;4883685;29;20562;-43
2022/09/07 03:34:49;;;;;;;25.63;21.43;;;;;;;;;;4888631;29;21020;-43
2022/09/07 03:37:15;;;;;;;28.87;21.60;;;;;;;;;;4887736;29;20184;-43
2022/09/07 03:39:41;;;;;;;28.93;21.20;;;;;;;;;;4884403;29;20563;-43
2022/09/07 03:42:07;;;;;;;27.00;22.70;;;;;;;;;;4887183;28;20204;-43
2022/09/07 03:44:33;;;;;;;32.83;23.37;;;;;;;;;;4885931;29;20227;-43
2022/09/07 03:46:59;;;;;;;24.93;21.27;;;;;;;;;;4886061;29;20240;-43
2022/09/07 03:49:25;;;;;;;28.37;22.23;;;;;;;;;;4889308;29;20192;-42
2022/09/07 03:51:51;;;;;;;27.43;23.40;;;;;;;;;;4885338;29;20181;-43
2022/09/07 03:54:17;;;;;;;29.27;21.57;;;;;;;;;;4886564;29;20188;-43
2022/09/07 03:56:43;;;;;;;23.17;20.67;;;;;;;;;;4888826;28;20273;-43
2022/09/07 03:59:09;;;;;;;23.47;17.57;;;;;;;;;;4887718;29;21286;-42
2022/09/07 04:01:36;;;;;;;19.20;15.60;;;;;;;;;;4883124;28;20595;-43
2022/09/07 04:04:02;;;;;;;21.00;17.37;;;;;;;;;;4885428;29;20491;-43
2022/09/07 04:06:28;;;;;;;18.03;15.13;;;;;;;;;;4886984;29;20480;-43
2022/09/07 04:08:57;;;;;;;22.87;15.37;;;;;;;;;;4889181;29;20582;-43
2022/09/07 04:11:23;;;;;;;16.67;13.50;;;;;;;;;;4880541;29;20898;-43
2022/09/07 04:13:49;;;;;;;15.17;13.53;;;;;;;;;;4884435;29;20208;-43
2022/09/07 04:16:17;;;;;;;17.93;13.47;;;;;;;;;;4889288;29;20279;-43
2022/09/07 04:18:43;;;;;;;27.87;15.03;;;;;;;;;;4889057;29;20184;-43
2022/09/07 04:21:09;;;;;;;25.63;16.57;;;;;;;;;;4884202;29;20228;-43
2022/09/07 04:23:39;;;;;;;25.77;15.20;;;;;;;;;;4882909;29;20371;-42
2022/09/07 04:26:06;;;;;;;28.73;16.10;;;;;;;;;;4885500;29;20577;-43
2022/09/07 04:28:32;;;;;;;19.93;14.53;;;;;;;;;;4885948;29;20467;-42
2022/09/07 04:31:02;;;;;;;19.50;15.07;;;;;;;;;;4885296;29;21125;-43
2022/09/07 04:33:31;;;;;;;15.40;13.43;;;;;;;;;;4900130;28;20586;-42
2022/09/07 04:35:59;;;;;;;19.33;13.43;;;;;;;;;;4882802;29;20184;-43
2022/09/07 04:38:26;;;;;;;18.67;14.30;;;;;;;;;;4884145;29;20288;-43
2022/09/07 04:40:59;;;;;;;18.30;14.37;;;;;;;;;;4884835;29;20643;-44
2022/09/07 04:43:25;;;;;;;18.83;14.57;;;;;;;;;;4884879;29;20794;-43
2022/09/07 04:45:51;;;;;;;17.83;15.07;;;;;;;;;;4887190;29;20188;-43
2022/09/07 04:48:17;;;;;;;19.37;14.83;;;;;;;;;;4885162;29;20203;-43
2022/09/07 04:50:43;;;;;;;20.17;15.60;;;;;;;;;;4885296;28;21547;-41
2022/09/07 04:53:09;;;;;;;18.43;14.47;;;;;;;;;;4885567;29;20184;-43
2022/09/07 04:55:35;;;;;;;18.27;15.13;;;;;;;;;;4889688;29;20781;-43
2022/09/07 04:58:02;;;;;;;18.63;14.43;;;;;;;;;;4885627;29;20521;-44
2022/09/07 05:00:28;;;;;;;17.90;14.40;;;;;;;;;;4884982;29;20650;-43
2022/09/07 05:02:54;;;;;;;16.47;12.23;;;;;;;;;;4888920;29;20307;-43
2022/09/07 05:05:20;;;;;;;17.17;13.10;;;;;;;;;;4889131;29;20207;-44
2022/09/07 05:07:46;;;;;;;18.07;12.13;;;;;;;;;;4889314;29;20172;-42
2022/09/07 05:10:12;;;;;;;18.80;12.37;;;;;;;;;;4891073;29;20173;-43
2022/09/07 05:12:38;;;;;;;13.80;11.03;;;;;;;;;;4890519;29;20479;-42
2022/09/07 05:15:05;;;;;;;15.33;10.93;;;;;;;;;;4887070;29;20471;-42
2022/09/07 05:17:31;;;;;;;17.33;10.73;;;;;;;;;;4888626;29;20606;-42
2022/09/07 05:19:57;;;;;;;13.93;11.23;;;;;;;;;;4891505;29;20296;-44
2022/09/07 05:22:26;;;;;;;14.67;11.57;;;;;;;;;;4889922;29;20776;-42
2022/09/07 05:24:53;;;;;;;17.87;11.93;;;;;;;;;;4884716;29;20188;-40
2022/09/07 05:27:19;;;;;;;14.07;10.80;;;;;;;;;;4889083;29;20192;-42
2022/09/07 05:29:46;;;;;;;16.60;12.30;;;;;;;;;;4888337;29;20173;-42
2022/09/07 05:32:12;;;;;;;18.97;12.57;;;;;;;;;;4889640;29;20601;-43
2022/09/07 05:34:38;;;;;;;19.30;12.90;;;;;;;;;;4890758;29;20872;-43
2022/09/07 05:37:04;;;;;;;19.40;13.70;;;;;;;;;;4890593;29;20630;-43
2022/09/07 05:39:30;;;;;;;16.50;11.40;;;;;;;;;;4890656;29;20216;-44
2022/09/07 05:41:56;;;;;;;15.47;13.07;;;;;;;;;;4888945;29;20318;-42
2022/09/07 05:44:22;;;;;;;20.60;13.20;;;;;;;;;;4889209;28;20589;-42
2022/09/07 05:46:48;;;;;;;16.50;13.27;;;;;;;;;;4891758;29;20184;-42
2022/09/07 05:49:14;;;;;;;16.67;12.23;;;;;;;;;;4889773;29;20364;-41
2022/09/07 05:51:41;;;;;;;15.27;12.73;;;;;;;;;;4891318;29;20180;-42
2022/09/07 05:54:07;;;;;;;18.33;12.10;;;;;;;;;;4890031;29;20263;-42
2022/09/07 05:56:34;;;;;;;18.00;12.53;;;;;;;;;;4893961;29;20508;-42
2022/09/07 05:59:00;;;;;;;14.97;12.33;;;;;;;;;;4893398;29;20839;-43
2022/09/07 06:01:27;;;;;;;19.23;12.67;;;;;;;;;;4903841;28;20945;-43
2022/09/07 06:03:53;;;;;;;21.93;12.97;;;;;;;;;;4888529;29;20259;-42
2022/09/07 06:06:19;;;;;;;16.67;12.40;;;;;;;;;;4892029;29;20291;-42
2022/09/07 06:08:47;;;;;;;14.00;12.10;;;;;;;;;;4893239;29;20693;-41
2022/09/07 06:11:15;;;;;;;17.63;11.77;;;;;;;;;;4890815;28;20641;-43
2022/09/07 06:13:42;;;;;;;19.30;11.30;;;;;;;;;;4885873;29;20184;-43
2022/09/07 06:16:09;;;;;;;17.07;11.23;;;;;;;;;;4888288;29;20184;-44
2022/09/07 06:18:36;;;;;;;17.40;11.33;;;;;;;;;;4889905;29;20668;-42
2022/09/07 06:21:13;;;;;;;15.37;11.00;;;;;;;;;;4894619;29;20177;-43
2022/09/07 06:23:40;;;;;;;19.90;11.57;;;;;;;;;;4890666;29;20522;-42
2022/09/07 06:26:06;;;;;;;19.50;13.63;;;;;;;;;;4887824;29;20257;-43
2022/09/07 06:28:37;;;;;;;21.03;12.87;;;;;;;;;;4889178;29;20183;-43
2022/09/07 06:31:10;;;;;;;14.47;11.83;;;;;;;;;;4892758;29;20203;-44
2022/09/07 06:33:36;;;;;;;20.57;14.47;;;;;;;;;;4888173;29;20196;-44
2022/09/07 06:36:06;;;;;;;20.83;13.70;;;;;;;;;;4888830;29;20180;-42
2022/09/07 06:38:33;;;;;;;19.40;14.53;;;;;;;;;;4888859;29;20177;-44
2022/09/07 06:41:11;;;;;;;19.80;13.47;;;;;;;;;;4892631;29;20289;-44
2022/09/07 06:43:37;;;;;;;18.00;14.07;;;;;;;;;;4888283;28;20852;-43
2022/09/07 06:46:04;;;;;;;20.13;14.23;;;;;;;;;;4887139;29;20912;-44
2022/09/07 06:48:30;;;;;;;20.57;14.73;;;;;;;;;;4890543;28;20523;-43
2022/09/07 06:50:57;;;;;;;19.33;14.87;;;;;;;;;;4889189;29;20711;-44
2022/09/07 06:53:25;;;;;;;24.53;15.87;;;;;;;;;;4888779;29;20828;-43
2022/09/07 06:55:51;;;;;;;28.13;16.77;;;;;;;;;;4887803;29;20176;-44
2022/09/07 06:58:17;;;;;;;20.47;17.17;;;;;;;;;;4888131;29;20179;-44
2022/09/07 07:00:43;;;;;;;25.70;18.57;;;;;;;;;;4884609;29;20470;-44
2022/09/07 07:03:09;;;;;;;23.93;18.67;;;;;;;;;;4892063;29;20211;-43
2022/09/07 07:05:35;;;;;;;22.87;19.03;;;;;;;;;;4897185;29;20281;-42
2022/09/07 07:08:01;;;;;;;20.47;17.00;;;;;;;;;;4897411;29;20692;-44
2022/09/07 07:10:27;;;;;;;18.77;14.83;;;;;;;;;;4898172;29;20714;-44
2022/09/07 07:12:56;;;;;;;20.63;15.40;;;;;;;;;;4893594;29;20310;-44
2022/09/07 07:15:24;;;;;;;18.93;13.90;;;;;;;;;;4895605;29;20216;-44
2022/09/07 07:17:50;;;;;;;17.60;14.17;;;;;;;;;;4898147;29;20183;-43
2022/09/07 07:20:17;;;;;;;17.50;14.23;;;;;;;;;;4895295;29;20753;-43
2022/09/07 07:22:43;;;;;;;21.13;16.63;;;;;;;;;;4893317;29;20538;-42
2022/09/07 07:25:09;;;;;;;18.27;16.10;;;;;;;;;;4892975;29;20543;-44
2022/09/07 07:27:35;;;;;;;21.50;17.87;;;;;;;;;;4898853;29;20255;-42
2022/09/07 07:30:01;;;;;;;21.77;17.43;;;;;;;;;;4896623;29;20272;-45
2022/09/07 07:32:27;;;;;;;25.47;18.50;;;;;;;;;;4898090;29;20614;-43
2022/09/07 07:34:53;;;;;;;27.93;19.70;;;;;;;;;;4897326;29;20733;-43
2022/09/07 07:37:21;;;;;;;22.33;18.23;;;;;;;;;;4900377;29;20180;-43
2022/09/07 07:39:49;;;;;;;19.80;17.80;;;;;;;;;;4897686;29;21005;-43
2022/09/07 07:42:15;;;;;;;26.43;18.10;;;;;;;;;;4897070;29;20200;-43
2022/09/07 07:44:41;;;;;;;21.53;18.40;;;;;;;;;;4898274;29;21021;-43
2022/09/07 07:47:07;;;;;;;21.57;17.77;;;;;;;;;;4901830;29;20187;-43
2022/09/07 07:49:33;;;;;;;20.90;17.13;;;;;;;;;;4894834;29;20208;-43
2022/09/07 07:52:00;;;;;;;21.93;16.63;;;;;;;;;;4897154;29;20181;-44
2022/09/07 07:54:26;;;;;;;22.07;17.07;;;;;;;;;;4898329;29;21014;-43
2022/09/07 07:56:52;;;;;;;22.77;17.27;;;;;;;;;;4899365;29;20488;-42
2022/09/07 07:59:18;;;;;;;16.90;14.70;;;;;;;;;;4898621;29;20889;-42
2022/09/07 08:01:44;;;;;;;21.27;16.00;;;;;;;;;;4897794;29;20251;-42
2022/09/07 08:04:10;;;;;;;18.13;15.47;;;;;;;;;;4899688;29;20180;-45
2022/09/07 08:06:36;;;;;;;19.63;17.20;;;;;;;;;;4895985;29;20176;-42
2022/09/07 08:09:03;;;;;;;22.93;16.63;;;;;;;;;;4894503;29;20476;-42
2022/09/07 08:11:30;;;;;;;23.47;16.40;;;;;;;;;;4894897;29;20184;-42
2022/09/07 08:13:58;;;;;;;20.30;15.60;;;;;;;;;;4897812;29;20267;-42
2022/09/07 08:16:25;;;;;;;18.67;14.10;;;;;;;;;;4905788;28;20519;-42
2022/09/07 08:18:52;;;;;;;17.13;13.90;;;;;;;;;;4894110;29;20934;-42
2022/09/07 08:21:18;;;;;;;21.00;15.77;;;;;;;;;;4895068;29;20717;-42
2022/09/07 08:23:44;;;;;;;18.93;12.93;;;;;;;;;;4898761;29;20279;-42
2022/09/07 08:26:11;;;;;;;19.70;16.53;;;;;;;;;;4900463;29;20176;-43
2022/09/07 08:28:39;;;;;;;19.67;16.00;;;;;;;;;;4899669;29;20644;-43
2022/09/07 08:31:07;;;;;;;22.93;19.40;;;;;;;;;;4894947;29;20183;-42
2022/09/07 08:33:37;;;;;;;28.93;23.37;;;;;;;;;;4896164;29;20316;-43
2022/09/07 08:36:07;;;;;;;30.13;22.57;;;;;;;;;;4900669;29;20210;-42
2022/09/07 08:38:34;;;;;;;28.10;22.80;;;;;;;;;;4898127;29;20184;-42
2022/09/07 08:41:01;;;;;;;30.30;23.97;;;;;;;;;;4896099;28;20262;-43
2022/09/07 08:43:27;;;;;;;29.07;25.40;;;;;;;;;;4896059;29;20259;-42
2022/09/07 08:45:55;;;;;;;26.20;22.00;;;;;;;;;;4899180;29;20180;-42
2022/09/07 08:48:27;;;;;;;28.17;24.33;;;;;;;;;;4898556;29;20634;-42
2022/09/07 08:50:56;;;;;;;28.07;22.33;;;;;;;;;;4896526;29;20183;-43
2022/09/07 08:53:23;;;;;;;28.03;20.70;;;;;;;;;;4900070;29;20476;-42
2022/09/07 08:56:05;;;;;;;24.37;21.67;;;;;;;;;;4898811;29;20721;-43
2022/09/07 08:58:31;;;;;;;23.57;17.63;;;;;;;;;;4896352;29;20203;-43
2022/09/07 09:00:57;;;;;;;19.53;17.30;;;;;;;;;;4894650;29;20180;-43
2022/09/07 09:03:26;;;;;;;20.47;15.90;;;;;;;;;;4896147;29;20208;-43
2022/09/07 09:06:01;;;;;;;28.83;25.63;;;;;;;;;;4908513;28;20188;-43
2022/09/07 09:08:27;;;;;;;31.23;27.90;;;;;;;;;;4895478;29;20198;-42
2022/09/07 09:11:02;;;;;;;30.00;25.77;;;;;;;;;;4895417;29;20184;-43
2022/09/07 09:13:28;;;;;;;29.37;25.97;;;;;;;;;;4897866;29;20186;-43
2022/09/07 09:16:14;;;;;;;25.90;22.37;;;;;;;;;;4898210;29;20176;-42
2022/09/07 09:18:43;;;;;;;21.50;19.30;;;;;;;;;;4896370;29;20478;-42
2022/09/07 09:21:13;;;;;;;25.70;22.90;;;;;;;;;;4895382;28;20192;-42
2022/09/07 09:23:40;;;;;;;30.90;27.83;;;;;;;;;;4895940;29;20865;-43
2022/09/07 09:26:16;;;;;;;23.73;21.40;;;;;;;;;;4896727;29;20172;-43
2022/09/07 09:28:42;;;;;;;23.40;21.10;;;;;;;;;;4895665;29;20320;-42
2022/09/07 09:31:19;;;;;;;21.80;16.57;;;;;;;;;;4893065;29;20923;-43
2022/09/07 09:34:05;;;;;;;21.30;18.20;;;;;;;;;;4898336;29;20721;-43
2022/09/07 09:36:33;;;;;;;21.13;18.03;;;;;;;;;;4898015;29;20547;-41
2022/09/07 09:38:59;;;;;;;30.50;26.43;;;;;;;;;;4898911;29;20426;-43
2022/09/07 09:41:35;;;;;;;25.90;20.90;;;;;;;;;;4899553;29;20176;-43
2022/09/07 09:44:02;;;;;;;20.07;16.40;;;;;;;;;;4895190;29;20919;-44
2022/09/07 09:46:30;;;;;;;16.23;14.57;;;;;;;;;;4903851;28;20630;-44
2022/09/07 09:49:14;;;;;;;24.53;20.27;;;;;;;;;;4896756;29;20172;-43
2022/09/07 09:51:41;;;;;;;23.40;19.90;;;;;;;;;;4900568;29;20596;-44
2022/09/07 09:54:20;;;;;;;20.20;18.17;;;;;;;;;;4898438;29;20697;-44
2022/09/07 09:56:48;;;;;;;21.13;18.93;;;;;;;;;;4899375;29;20628;-41
2022/09/07 09:59:17;;;;;;;24.77;20.23;;;;;;;;;;4901242;29;20173;-42
2022/09/07 10:01:45;;;;;;;22.30;17.77;;;;;;;;;;4900635;29;20184;-42
2022/09/07 10:04:31;;;;;;;17.77;14.83;;;;;;;;;;4900513;28;20187;-42
2022/09/07 10:07:03;;;;;;;18.00;16.10;;;;;;;;;;4899429;29;20808;-43
2022/09/07 10:09:33;;;;;;;19.07;16.13;;;;;;;;;;4900640;29;20180;-43
2022/09/07 10:12:01;;;;;;;20.60;16.67;;;;;;;;;;4903160;29;20180;-42
2022/09/07 10:14:33;;;;;;;18.27;16.23;;;;;;;;;;4900136;29;20620;-42
2022/09/07 10:17:00;;;;;;;15.20;11.87;;;;;;;;;;4897278;29;20756;-42
2022/09/07 10:19:26;;;;;;;18.63;13.00;;;;;;;;;;4899892;29;20224;-43
2022/09/07 10:21:59;;;;;;;16.17;13.50;;;;;;;;;;4903579;29;20196;-42
2022/09/07 10:24:26;;;;;;;16.03;14.30;;;;;;;;;;4899533;29;20215;-42
2022/09/07 10:26:53;;;;;;;15.07;12.10;;;;;;;;;;4898350;29;20200;-41
2022/09/07 10:29:25;;;;;;;15.80;12.37;;;;;;;;;;4899599;29;20566;-42
2022/09/07 10:31:55;;;;;;;12.53;11.17;;;;;;;;;;4901290;29;20416;-43
2022/09/07 10:34:40;;;;;;;12.30;9.23;;;;;;;;;;4898991;29;20184;-42
2022/09/07 10:37:09;;;;;;;12.03;8.60;;;;;;;;;;4895191;29;20187;-42
2022/09/07 10:39:42;;;;;;;13.93;9.83;;;;;;;;;;4898123;29;20216;-42
2022/09/07 10:42:27;;;;;;;16.00;12.57;;;;;;;;;;4899951;29;20381;-42
2022/09/07 10:45:12;;;;;;;12.37;9.50;;;;;;;;;;4892371;29;20183;-42
2022/09/07 10:47:47;;;;;;;13.00;9.00;;;;;;;;;;4895769;29;20368;-43
2022/09/07 10:50:30;;;;;;;9.60;8.67;;;;;;;;;;4900053;29;20176;-42
2022/09/07 10:53:02;;;;;;;10.80;9.70;;;;;;;;;;4900781;29;20321;-43
2022/09/07 10:55:33;;;;;;;12.53;10.23;;;;;;;;;;4897523;29;20176;-43
2022/09/07 10:58:05;;;;;;;14.93;10.40;;;;;;;;;;4896258;29;20705;-43
2022/09/07 11:00:47;;;;;;;11.83;10.23;;;;;;;;;;4898872;29;20176;-44
2022/09/07 11:03:19;;;;;;;13.70;10.60;;;;;;;;;;4899162;29;20301;-43
2022/09/07 11:06:03;;;;;;;11.37;9.17;;;;;;;;;;4894688;29;20220;-44
2022/09/07 11:08:33;;;;;;;11.10;8.50;;;;;;;;;;4894464;29;20531;-42
2022/09/07 11:11:05;;;;;;;11.50;8.60;;;;;;;;;;4895802;29;20166;-44
2022/09/07 11:13:32;;;;;;;13.60;9.30;;;;;;;;;;4899673;29;20219;-43
2022/09/07 11:16:03;;;;;;;13.73;8.80;;;;;;;;;;4897716;29;20279;-43
2022/09/07 11:18:32;;;;;;;13.50;8.87;;;;;;;;;;4897764;29;20927;-43
2022/09/07 11:20:59;;;;;;;11.93;8.80;;;;;;;;;;4896086;29;20536;-43
2022/09/07 11:23:26;;;;;;;11.93;9.13;;;;;;;;;;4898567;29;20210;-43
2022/09/07 11:25:52;;;;;;;11.60;8.50;;;;;;;;;;4894843;29;20656;-42
2022/09/07 11:28:23;;;;;;;11.33;7.60;;;;;;;;;;4897217;29;20530;-43
2022/09/07 11:30:53;;;;;;;9.00;6.50;;;;;;;;;;4895127;29;20172;-43
2022/09/07 11:33:25;;;;;;;9.70;6.40;;;;;;;;;;4897809;29;20180;-43
2022/09/07 11:35:58;;;;;;;9.87;6.73;;;;;;;;;;4899528;29;20235;-43
2022/09/07 11:38:28;;;;;;;7.30;6.53;;;;;;;;;;4898237;29;20629;-43
2022/09/07 11:41:00;;;;;;;9.07;6.23;;;;;;;;;;4897633;29;20180;-43
2022/09/07 11:43:29;;;;;;;8.43;5.97;;;;;;;;;;4900043;29;20196;-44
2022/09/07 11:46:03;;;;;;;10.70;5.87;;;;;;;;;;4901969;29;20181;-43
2022/09/07 11:48:32;;;;;;;6.63;5.07;;;;;;;;;;4898335;29;20207;-43
2022/09/07 11:51:00;;;;;;;11.30;6.13;;;;;;;;;;4896041;29;20351;-42
2022/09/07 11:53:28;;;;;;;7.37;5.60;;;;;;;;;;4898085;29;20811;-44
2022/09/07 11:55:56;;;;;;;10.17;5.40;;;;;;;;;;4899882;29;20180;-44
2022/09/07 11:58:32;;;;;;;8.77;5.40;;;;;;;;;;4898357;29;20423;-42
2022/09/07 12:01:01;;;;;;;8.93;5.10;;;;;;;;;;4898237;29;20613;-42
2022/09/07 12:03:46;;;;;;;10.10;5.10;;;;;;;;;;4898915;29;20243;-42
2022/09/07 12:06:18;;;;;;;10.90;5.60;;;;;;;;;;4897128;29;20593;-42
2022/09/07 12:08:47;;;;;;;7.80;5.00;;;;;;;;;;4897515;29;20288;-44
2022/09/07 12:11:36;;;;;;;11.80;5.40;;;;;;;;;;4905636;28;20192;-43
2022/09/07 12:14:08;;;;;;;8.43;4.73;;;;;;;;;;4899756;29;20180;-43
2022/09/07 12:16:34;;;;;;;6.53;4.57;;;;;;;;;;4896322;29;20908;-43
2022/09/07 12:19:03;;;;;;;5.90;4.47;;;;;;;;;;4895374;29;20701;-42
2022/09/07 12:21:31;;;;;;;8.47;4.70;;;;;;;;;;4894879;29;20184;-43
2022/09/07 12:23:57;;;;;;;7.33;4.70;;;;;;;;;;4897603;29;20283;-43
2022/09/07 12:26:35;;;;;;;10.03;4.83;;;;;;;;;;4897012;29;20454;-42
2022/09/07 12:29:01;;;;;;;7.90;4.50;;;;;;;;;;4896246;29;20179;-42
2022/09/07 12:31:44;;;;;;;9.17;4.50;;;;;;;;;;4895250;29;20486;-43
2022/09/07 12:34:29;;;;;;;7.93;4.30;;;;;;;;;;4897805;29;20206;-43
2022/09/07 12:36:55;;;;;;;8.53;4.27;;;;;;;;;;4899996;29;20624;-43
2022/09/07 12:39:24;;;;;;;7.93;3.87;;;;;;;;;;4896438;29;20452;-43
2022/09/07 12:41:52;;;;;;;8.67;4.10;;;;;;;;;;4895124;29;20176;-44
2022/09/07 12:44:23;;;;;;;9.50;4.10;;;;;;;;;;4898268;29;20684;-44
2022/09/07 12:46:53;;;;;;;8.60;4.43;;;;;;;;;;4899510;29;20587;-43
2022/09/07 12:49:38;;;;;;;8.00;3.87;;;;;;;;;;4897285;29;20975;-43
2022/09/07 12:52:19;;;;;;;8.07;3.70;;;;;;;;;;4898782;29;20359;-43
2022/09/07 12:54:55;;;;;;;11.33;4.60;;;;;;;;;;4911326;28;20590;-43
2022/09/07 12:57:22;;;;;;;7.37;4.20;;;;;;;;;;4898629;29;20183;-42
2022/09/07 12:59:57;;;;;;;7.87;4.40;;;;;;;;;;4899841;29;20577;-43
2022/09/07 13:02:52;;;;;;;5.60;3.70;;;;;;;;;;4897547;29;20342;-44
2022/09/07 13:05:36;;;;;;;9.23;3.90;;;;;;;;;;4903016;28;20496;-43
2022/09/07 13:08:27;;;;;;;5.80;3.50;;;;;;;;;;4896606;29;20661;-44
2022/09/07 13:10:53;;;;;;;6.73;3.93;;;;;;;;;;4896245;29;20235;-44
2022/09/07 13:13:21;;;;;;;8.60;3.30;;;;;;;;;;4899149;29;20644;-44
2022/09/07 13:15:49;;;;;;;7.87;3.27;;;;;;;;;;4897491;29;20608;-44
2022/09/07 13:18:27;;;;;;;6.77;2.90;;;;;;;;;;4894752;29;20287;-44
2022/09/07 13:21:08;;;;;;;7.20;3.70;;;;;;;;;;4897242;29;20188;-43
2022/09/07 13:23:38;;;;;;;7.40;3.37;;;;;;;;;;4907220;28;20208;-44
2022/09/07 13:26:06;;;;;;;6.57;3.23;;;;;;;;;;4897994;28;20600;-44
2022/09/07 13:28:41;;;;;;;13.13;3.67;;;;;;;;;;4893202;29;20975;-43
2022/09/07 13:31:16;;;;;;;9.90;3.50;;;;;;;;;;4900238;29;20227;-44
2022/09/07 13:33:47;;;;;;;10.77;3.50;;;;;;;;;;4900446;29;20754;-43
2022/09/07 13:36:20;;;;;;;8.60;3.50;;;;;;;;;;4898441;28;20191;-44
2022/09/07 13:38:47;;;;;;;8.53;3.23;;;;;;;;;;4898067;29;20176;-42
2022/09/07 13:41:16;;;;;;;10.33;3.57;;;;;;;;;;4901271;29;20632;-44
2022/09/07 13:43:48;;;;;;;4.33;2.73;;;;;;;;;;4900077;29;20347;-43
2022/09/07 13:46:28;;;;;;;7.23;3.37;;;;;;;;;;4898880;29;20176;-44
2022/09/07 13:49:00;;;;;;;12.87;3.40;;;;;;;;;;4897968;29;20519;-43
2022/09/07 13:51:48;;;;;;;5.17;3.13;;;;;;;;;;4901020;29;20180;-43
2022/09/07 13:54:37;;;;;;;6.60;3.50;;;;;;;;;;4897541;28;20825;-44
2022/09/07 13:57:03;;;;;;;10.50;3.63;;;;;;;;;;4897505;29;20200;-43
2022/09/07 13:59:32;;;;;;;10.47;3.50;;;;;;;;;;4900244;29;20181;-43
2022/09/07 14:01:58;;;;;;;9.53;3.33;;;;;;;;;;4900031;29;20181;-43
2022/09/07 14:04:24;;;;;;;14.27;3.50;;;;;;;;;;4896744;29;20181;-43
2022/09/07 14:06:50;;;;;;;8.50;3.10;;;;;;;;;;4897551;29;20587;-43
2022/09/07 14:09:21;;;;;;;10.03;3.60;;;;;;;;;;4901747;29;20189;-43
2022/09/07 14:11:53;;;;;;;7.03;3.00;;;;;;;;;;4899138;29;20165;-43
2022/09/07 14:14:19;;;;;;;8.67;3.33;;;;;;;;;;4892463;29;20261;-43
2022/09/07 14:16:47;;;;;;;6.37;2.90;;;;;;;;;;4897343;29;20175;-41
2022/09/07 14:19:18;;;;;;;8.10;3.50;;;;;;;;;;4899604;29;20288;-43
2022/09/07 14:21:53;;;;;;;9.17;3.57;;;;;;;;;;4899026;29;20501;-43
2022/09/07 14:24:27;;;;;;;6.87;3.27;;;;;;;;;;4897843;29;20300;-42
2022/09/07 14:26:53;;;;;;;9.00;3.17;;;;;;;;;;4893529;29;20966;-44
2022/09/07 14:29:24;;;;;;;9.33;2.93;;;;;;;;;;4898676;29;20174;-44
2022/09/07 14:31:51;;;;;;;7.93;3.20;;;;;;;;;;4897368;29;20868;-43
2022/09/07 14:34:19;;;;;;;5.70;2.90;;;;;;;;;;4899585;29;20745;-43
2022/09/07 14:36:46;;;;;;;9.87;2.83;;;;;;;;;;4889650;29;20248;-44
2022/09/07 14:39:13;;;;;;;9.90;3.10;;;;;;;;;;4891391;29;20990;-43